createdAt,value
2023-05-18T00:00:23.540Z,9.25
2023-05-18T00:05:34.342Z,8.75
2023-05-18T00:10:37.699Z,8.75
2023-05-18T00:15:40.575Z,8.50
2023-05-18T00:20:44.817Z,10.75
2023-05-18T00:25:47.606Z,8.50
2023-05-18T00:30:50.484Z,9.00
2023-05-18T00:35:56.681Z,10.00
2023-05-18T00:40:59.510Z,9.75
2023-05-18T00:46:02.454Z,8.50
2023-05-18T00:51:07.211Z,9.75
2023-05-18T00:56:12.173Z,6.75
2023-05-18T01:01:17.725Z,9.25
2023-05-18T01:06:21.995Z,7.75
2023-05-18T01:11:32.797Z,8.25
2023-05-18T01:16:44.729Z,10.50
2023-05-18T01:21:58.850Z,11.75
2023-05-18T01:27:07.867Z,10.50
2023-05-18T01:32:11.220Z,8.75
2023-05-18T01:37:14.269Z,8.25
2023-05-18T01:42:26.059Z,8.25
2023-05-18T01:47:31.580Z,9.00
2023-05-18T01:52:39.007Z,7.50
2023-05-18T01:57:46.231Z,9.25
2023-05-18T02:02:51.081Z,8.75
2023-05-18T02:07:54.563Z,8.00
2023-05-18T02:12:58.772Z,7.75
2023-05-18T02:18:03.086Z,8.25
2023-05-18T02:23:07.782Z,9.25
2023-05-18T02:28:11.978Z,9.75
2023-05-18T02:33:14.728Z,7.75
2023-05-18T02:38:17.514Z,10.75
2023-05-18T02:43:21.849Z,9.00
2023-05-18T02:48:24.803Z,6.00
2023-05-18T02:53:27.639Z,8.00
2023-05-18T02:58:38.150Z,9.75
2023-05-18T03:03:47.939Z,9.25
2023-05-18T03:08:54.255Z,7.75
2023-05-18T03:14:01.413Z,7.25
2023-05-18T03:19:04.375Z,6.00
2023-05-18T03:24:14.905Z,10.25
2023-05-18T03:29:22.188Z,6.00
2023-05-18T03:34:25.861Z,8.00
2023-05-18T03:39:28.719Z,10.00
2023-05-18T03:44:32.958Z,8.75
2023-05-18T03:49:36.254Z,6.25
2023-05-18T03:54:42.655Z,8.75
2023-05-18T03:59:47.089Z,9.25
2023-05-18T04:04:49.969Z,7.00
2023-05-18T04:09:54.885Z,9.75
2023-05-18T04:14:59.198Z,6.00
2023-05-18T04:20:06.392Z,5.75
2023-05-18T04:25:10.866Z,5.25
2023-05-18T04:30:18.831Z,5.25
2023-05-18T04:35:21.901Z,7.25
2023-05-18T04:40:25.321Z,7.25
2023-05-18T04:45:30.194Z,4.50
2023-05-18T04:50:33.613Z,4.50
2023-05-18T04:55:36.734Z,5.25
2023-05-18T05:00:44.709Z,5.75
2023-05-18T05:05:47.678Z,7.25
2023-05-18T05:10:50.601Z,4.50
2023-05-18T05:15:55.264Z,6.75
2023-05-18T05:20:59.305Z,6.00
2023-05-18T05:26:02.516Z,4.50
2023-05-18T05:31:07.187Z,5.50
2023-05-18T05:36:10.874Z,4.50
2023-05-18T05:41:13.826Z,6.00
2023-05-18T05:46:18.563Z,4.50
2023-05-18T05:51:21.672Z,7.75
2023-05-18T05:56:24.591Z,4.00
2023-05-18T06:01:29.080Z,5.75
2023-05-18T06:06:32.528Z,5.25
2023-05-18T06:11:35.948Z,6.00
2023-05-18T06:16:40.317Z,5.00
2023-05-18T06:21:43.459Z,6.50
2023-05-18T06:26:46.696Z,4.00
2023-05-18T06:32:06.855Z,4.00
2023-05-18T06:37:12.123Z,7.00
2023-05-18T06:42:14.933Z,5.00
2023-05-18T06:47:28.586Z,3.25
2023-05-18T06:52:32.510Z,4.00
2023-05-18T06:57:35.672Z,6.00
2023-05-18T07:02:43.342Z,4.75
2023-05-18T07:07:47.566Z,5.00
2023-05-18T07:12:51.064Z,4.75
2023-05-18T07:17:55.540Z,6.00
2023-05-18T07:22:58.862Z,6.50
2023-05-18T07:28:01.778Z,4.00
2023-05-18T07:33:06.196Z,3.00
2023-05-18T07:38:09.067Z,5.25
2023-05-18T07:43:11.956Z,2.75
2023-05-18T07:48:16.316Z,3.00
2023-05-18T07:53:19.087Z,2.00
2023-05-18T07:58:22.283Z,2.00
2023-05-18T08:03:26.789Z,2.75
2023-05-18T08:08:29.895Z,1.75
2023-05-18T08:13:33.992Z,5.25
2023-05-18T08:18:38.634Z,3.00
2023-05-18T08:23:41.467Z,5.25
2023-05-18T08:28:45.314Z,3.00
2023-05-18T08:33:49.911Z,2.75
2023-05-18T08:38:53.765Z,2.00
2023-05-18T08:44:02.477Z,3.00
2023-05-18T08:49:07.497Z,0.75
2023-05-18T08:54:12.270Z,3.50
2023-05-18T08:59:19.688Z,2.00
2023-05-18T09:04:25.107Z,2.50
2023-05-18T09:09:28.145Z,3.00
2023-05-18T09:14:33.581Z,3.00
2023-05-18T09:19:37.939Z,2.25
2023-05-18T09:24:40.884Z,3.50
2023-05-18T09:29:54.033Z,3.50
2023-05-18T09:35:06.128Z,3.25
2023-05-18T09:40:10.205Z,2.00
2023-05-18T09:45:19.103Z,3.25
2023-05-18T09:50:25.658Z,3.00
2023-05-18T09:55:28.765Z,2.50
2023-05-18T10:00:32.815Z,2.25
2023-05-18T10:05:43.576Z,3.75
2023-05-18T10:10:48.460Z,4.00
2023-05-18T10:15:54.215Z,2.00
2023-05-18T10:21:02.321Z,3.00
2023-05-18T10:26:07.468Z,2.25
2023-05-18T10:31:10.373Z,3.00
2023-05-18T10:36:14.905Z,4.00
2023-05-18T10:41:22.522Z,4.25
2023-05-18T10:46:27.268Z,2.50
2023-05-18T10:51:41.195Z,1.50
2023-05-18T10:56:50.381Z,2.25
2023-05-18T11:01:55.381Z,4.00
2023-05-18T11:07:03.095Z,3.75
2023-05-18T11:12:13.001Z,3.00
2023-05-18T11:17:20.619Z,4.25
2023-05-18T11:22:24.903Z,3.00
2023-05-18T11:27:30.067Z,2.50
2023-05-18T11:32:34.124Z,4.00
2023-05-18T11:37:51.277Z,3.00
2023-05-18T11:42:59.490Z,4.50
2023-05-18T11:48:03.610Z,3.50
2023-05-18T11:53:08.477Z,3.00
2023-05-18T11:58:11.401Z,4.25
2023-05-18T12:03:14.795Z,2.00
2023-05-18T12:08:20.066Z,4.00
2023-05-18T12:13:24.705Z,2.00
2023-05-18T12:18:29.574Z,2.75
2023-05-18T12:23:39.881Z,2.00
2023-05-18T12:28:42.731Z,2.50
2023-05-18T12:33:45.629Z,1.75
2023-05-18T12:38:53.292Z,3.00
2023-05-18T12:43:58.422Z,2.25
2023-05-18T12:49:04.347Z,1.00
2023-05-18T12:54:09.459Z,1.75
2023-05-18T12:59:12.282Z,2.00
2023-05-18T13:04:15.501Z,66.80
2023-05-18T13:09:20.037Z,158.80
2023-05-18T13:14:23.802Z,229.80
2023-05-18T13:19:27.376Z,249.33
2023-05-18T13:24:32.039Z,209.60
2023-05-18T13:29:34.964Z,252.00
2023-05-18T13:34:37.782Z,169.00
2023-05-18T13:39:42.369Z,144.60
2023-05-18T13:44:45.166Z,115.60
2023-05-18T13:49:48.007Z,98.80
2023-05-18T13:54:52.321Z,90.40
2023-05-18T13:59:55.105Z,77.40
2023-05-18T14:04:58.587Z,81.40
2023-05-18T14:10:03.141Z,68.00
2023-05-18T14:15:07.189Z,56.00
2023-05-18T14:20:11.106Z,52.60
2023-05-18T14:25:15.257Z,47.20
2023-05-18T14:30:18.462Z,51.40
2023-05-18T14:35:21.506Z,47.40
2023-05-18T14:40:25.879Z,45.20
2023-05-18T14:45:28.711Z,45.00
2023-05-18T14:50:32.151Z,42.80
2023-05-18T14:55:37.233Z,42.20
2023-05-18T15:00:40.162Z,31.00
2023-05-18T15:05:44.372Z,35.00
2023-05-18T15:10:50.005Z,35.60
2023-05-18T15:15:53.028Z,27.40
2023-05-18T15:20:55.988Z,35.40
2023-05-18T15:26:00.516Z,29.80
2023-05-18T15:31:04.608Z,25.80
2023-05-18T15:36:07.934Z,32.00
2023-05-18T15:41:12.151Z,30.20
2023-05-18T15:46:15.141Z,27.00
2023-05-18T15:51:17.943Z,30.40
2023-05-18T15:56:22.287Z,32.20
2023-05-18T16:01:25.245Z,23.20
2023-05-18T16:06:28.322Z,34.80
2023-05-18T16:11:35.559Z,26.40
2023-05-18T16:16:38.655Z,24.00
2023-05-18T16:21:41.587Z,32.00
2023-05-18T16:26:45.840Z,26.40
2023-05-18T16:31:48.738Z,25.60
2023-05-18T16:36:51.766Z,23.80
2023-05-18T16:41:55.966Z,23.40
2023-05-18T16:46:59.685Z,24.75
2023-05-18T16:52:03.603Z,25.40
2023-05-18T16:57:07.946Z,22.25
2023-05-18T17:02:13.324Z,26.75
2023-05-18T17:07:16.836Z,23.75
2023-05-18T17:12:23.131Z,25.00
2023-05-18T17:17:26.105Z,24.50
2023-05-18T17:22:29.090Z,22.00
2023-05-18T17:27:33.742Z,22.40
2023-05-18T17:32:38.759Z,18.50
2023-05-18T17:37:42.044Z,23.60
2023-05-18T17:42:46.596Z,22.50
2023-05-18T17:47:49.597Z,23.80
2023-05-18T17:52:52.665Z,19.25
2023-05-18T17:57:59.636Z,21.75
2023-05-18T18:03:02.679Z,26.00
2023-05-18T18:08:05.685Z,19.25
2023-05-18T18:13:09.937Z,20.25
2023-05-18T18:18:13.142Z,17.50
2023-05-18T18:23:16.610Z,23.00
2023-05-18T18:28:21.041Z,19.75
2023-05-18T18:33:25.716Z,17.00
2023-05-18T18:38:29.077Z,15.25
2023-05-18T18:43:35.298Z,17.50
2023-05-18T18:48:38.157Z,23.80
2023-05-18T18:53:41.089Z,15.75
2023-05-18T18:58:45.610Z,20.80
2023-05-18T19:03:48.413Z,23.25
2023-05-18T19:08:52.150Z,19.00
2023-05-18T19:13:56.538Z,20.60
2023-05-18T19:18:59.464Z,19.75
2023-05-18T19:24:02.326Z,19.50
2023-05-18T19:29:06.519Z,19.75
2023-05-18T19:34:09.388Z,16.75
2023-05-18T19:39:12.257Z,18.00
2023-05-18T19:44:16.809Z,18.50
2023-05-18T19:49:19.704Z,16.00
2023-05-18T19:54:22.624Z,18.50
2023-05-18T19:59:26.876Z,15.00
2023-05-18T20:04:30.076Z,19.00
2023-05-18T20:09:32.954Z,16.00
2023-05-18T20:14:38.890Z,16.75
2023-05-18T20:19:49.912Z,14.75
2023-05-18T20:24:53.587Z,18.50
2023-05-18T20:29:57.787Z,14.50
2023-05-18T20:35:00.674Z,13.75
2023-05-18T20:40:08.911Z,14.00
2023-05-18T20:45:13.755Z,15.50
2023-05-18T20:50:16.643Z,17.25
2023-05-18T20:55:20.716Z,14.00
2023-05-18T21:00:25.139Z,13.00
2023-05-18T21:05:27.984Z,13.75
2023-05-18T21:10:32.026Z,16.00
2023-05-18T21:15:37.407Z,14.50
2023-05-18T21:20:40.408Z,16.25
2023-05-18T21:25:43.252Z,12.50
2023-05-18T21:30:48.275Z,13.75
2023-05-18T21:35:51.345Z,16.00
2023-05-18T21:40:56.027Z,14.75
2023-05-18T21:46:00.384Z,12.25
2023-05-18T21:51:04.174Z,14.50
2023-05-18T21:56:07.696Z,12.50
2023-05-18T22:01:11.895Z,16.50
2023-05-18T22:06:14.860Z,11.50
2023-05-18T22:11:17.690Z,14.75
2023-05-18T22:16:21.943Z,13.50
2023-05-18T22:21:24.754Z,12.75
2023-05-18T22:26:27.667Z,11.25
2023-05-18T22:31:32.632Z,13.75
2023-05-18T22:36:36.232Z,13.00
2023-05-18T22:41:39.093Z,11.50
2023-05-18T22:46:43.454Z,9.75
2023-05-18T22:51:47.530Z,12.50
2023-05-18T22:56:50.464Z,10.25
2023-05-18T23:01:54.870Z,9.50
2023-05-18T23:06:57.972Z,12.00
2023-05-18T23:12:01.251Z,10.25
2023-05-18T23:17:06.487Z,12.25
2023-05-18T23:22:09.326Z,8.50
2023-05-18T23:27:12.197Z,8.25
2023-05-18T23:32:16.407Z,11.25
2023-05-18T23:37:20.933Z,9.50
2023-05-18T23:42:25.430Z,7.50
2023-05-18T23:47:30.122Z,10.25
2023-05-18T23:52:34.121Z,9.50
2023-05-18T23:57:37.452Z,8.50
